»·PEaware :: N800DW KAVX-KUKI

N800DW :: KAVX-KUKI

FLIGHT INFORMATION

Flight Status: Arrived
Operator: Privately registered:
United States
More flights under this callsign
Pilot: Scott L. (17677)
Aircraft: Unknown
(EPIC)
More flights by this aircraft type
Origin: KAVX Catalina
United States
Destination: KUKI Ukiah Mun
United States
More flights between these airports :: More routes between these airports
Route: PAROL V27 VTU V25 GETER
File this flight plan on PilotEdge
Remarks:
Altitude:
(Current/Filed)
30,000ft
Speed:
(Current/Filed)
250kts
Departed: 16-May-18 05:02 PM
Arrived: 16-May-18 06:42 PM
Distance/Time
Traveled:
414nm/1:40
Distance/Time
To Go:
Arrived

Flight Plot

Page will automatically refresh every two minutes.

Flight plan parsing failed; only flown route is shown


Map Options




Map Legend


Flown Route
Filed Route
Departure Airport
Arrival Airport
Navaid (VOR, NDB)
Fix

Horizontal Profiles

Position Reports

Time Latitude Longitude Heading Altitude Ground
Speed
16-May-18 16:50 33.403955 -118.415086 143 1557ft 0kts
16-May-18 16:51 33.403955 -118.415086 143 1557ft 0kts
16-May-18 16:52 33.403955 -118.415086 143 1557ft 0kts
16-May-18 16:53 33.403955 -118.415086 143 1557ft 0kts
16-May-18 16:54 33.403955 -118.415086 143 1557ft 0kts
16-May-18 16:55 33.403955 -118.415086 143 1557ft 0kts
16-May-18 16:56 33.405524 -118.414223 56 1557ft 0kts
16-May-18 16:57 33.406470 -118.412606 58 1557ft 0kts
16-May-18 16:58 33.407107 -118.411530 51 1557ft 0kts
16-May-18 16:59 33.407107 -118.411531 51 1557ft 0kts
16-May-18 17:00 33.407107 -118.411531 51 1557ft 0kts
16-May-18 17:01 33.407107 -118.411530 51 1557ft 0kts
16-May-18 17:02 33.405302 -118.415227 235 1557ft 99kts
16-May-18 17:03 33.402103 -118.467519 293 3920ft 218kts
16-May-18 17:04 33.459985 -118.519319 343 4062ft 284kts
16-May-18 17:05 33.531109 -118.547174 323 4015ft 265kts
16-May-18 17:06 33.589536 -118.599560 318 4016ft 261kts
16-May-18 17:07 33.643742 -118.645918 319 6990ft 197kts
16-May-18 17:08 33.688208 -118.684277 319 10550ft 215kts
16-May-18 17:09 33.739120 -118.728136 319 12997ft 263kts
16-May-18 17:10 33.806300 -118.785254 320 13539ft 297kts
16-May-18 17:11 33.858769 -118.829946 315 17630ft 237kts
16-May-18 17:12 33.912523 -118.875913 314 19884ft 240kts
16-May-18 17:13 33.967300 -118.922806 313 21734ft 244kts
16-May-18 17:14 34.022784 -118.970371 313 23272ft 247kts
16-May-18 17:15 34.078483 -119.018193 312 24555ft 249kts
16-May-18 17:16 34.123189 -119.067301 294 25505ft 235kts
16-May-18 17:17 34.159816 -119.131421 293 26363ft 237kts
16-May-18 17:18 34.196408 -119.197450 292 27106ft 238kts
16-May-18 17:19 34.233168 -119.264269 292 27732ft 240kts
16-May-18 17:20 34.270168 -119.331718 292 28264ft 242kts
16-May-18 17:21 34.307342 -119.399638 292 28720ft 243kts
16-May-18 17:22 34.344726 -119.468044 291 29087ft 245kts
16-May-18 17:23 34.382250 -119.536853 291 29406ft 246kts
16-May-18 17:24 34.419834 -119.605905 291 29690ft 246kts
16-May-18 17:25 34.455576 -119.671686 291 29947ft 247kts
16-May-18 17:26 34.489615 -119.734473 291 30040ft 253kts
16-May-18 17:27 34.543625 -119.794510 313 30043ft 283kts
16-May-18 17:28 34.611339 -119.844752 314 30054ft 287kts
16-May-18 17:29 34.679782 -119.894632 315 30063ft 288kts
16-May-18 17:30 34.748596 -119.944751 315 30073ft 288kts
16-May-18 17:31 34.817167 -119.994787 314 30083ft 289kts
16-May-18 17:32 34.886054 -120.045148 315 30088ft 289kts
16-May-18 17:33 34.954822 -120.095580 316 30093ft 290kts
16-May-18 17:34 35.023675 -120.146132 318 30099ft 291kts
16-May-18 17:35 35.093017 -120.197064 318 30104ft 292kts
16-May-18 17:36 35.160527 -120.246798 318 30105ft 292kts
16-May-18 17:37 35.229774 -120.297916 318 30104ft 292kts
16-May-18 17:38 35.298965 -120.349106 318 30103ft 292kts
16-May-18 17:39 35.368217 -120.400431 318 30101ft 291kts
16-May-18 17:40 35.437372 -120.451806 318 30088ft 292kts
16-May-18 17:41 35.506650 -120.503370 318 30072ft 292kts
16-May-18 17:42 35.575825 -120.554964 318 30068ft 292kts
16-May-18 17:43 35.644902 -120.606591 318 30066ft 291kts
16-May-18 17:44 35.705709 -120.658744 310 30077ft 285kts
16-May-18 17:45 35.767882 -120.719688 311 30076ft 286kts
16-May-18 17:46 35.829211 -120.779408 311 30076ft 287kts
16-May-18 17:47 35.891451 -120.840068 311 30076ft 288kts
16-May-18 17:48 35.954031 -120.901172 311 30076ft 288kts
16-May-18 17:49 36.016567 -120.962361 311 30075ft 287kts
16-May-18 17:50 36.078924 -121.023549 312 30082ft 286kts
16-May-18 17:51 36.132027 -121.075707 313 30091ft 284kts
16-May-18 17:52 36.192834 -121.135560 314 30115ft 282kts
16-May-18 17:53 36.253946 -121.195837 315 30131ft 281kts
16-May-18 17:54 36.314829 -121.255969 314 30136ft 280kts
16-May-18 17:55 36.376278 -121.316833 315 29851ft 288kts
16-May-18 17:56 36.438915 -121.378975 315 29529ft 291kts
16-May-18 17:57 36.502393 -121.442107 315 29197ft 293kts
16-May-18 17:58 36.565516 -121.505030 315 28866ft 294kts
16-May-18 17:59 36.629119 -121.568563 316 28535ft 294kts
16-May-18 18:00 36.687055 -121.638545 306 28210ft 290kts
16-May-18 18:01 36.738941 -121.714730 305 27916ft 290kts
16-May-18 18:02 36.790786 -121.791665 305 27626ft 290kts
16-May-18 18:03 36.842590 -121.868817 305 27330ft 291kts
16-May-18 18:04 36.894360 -121.946097 305 27031ft 291kts
16-May-18 18:05 36.946132 -122.023581 305 26726ft 291kts
16-May-18 18:06 37.009328 -122.086186 331 26391ft 302kts
16-May-18 18:07 37.086670 -122.126961 335 26065ft 303kts
16-May-18 18:08 37.163651 -122.165878 336 25766ft 306kts
16-May-18 18:09 37.242583 -122.205655 336 25468ft 307kts
16-May-18 18:10 37.320020 -122.244736 336 25171ft 308kts
16-May-18 18:11 37.397522 -122.283071 340 24872ft 309kts
16-May-18 18:12 37.479091 -122.316613 340 24562ft 309kts
16-May-18 18:13 37.560573 -122.349894 340 24254ft 310kts
16-May-18 18:14 37.631778 -122.404180 309 23886ft 310kts
16-May-18 18:15 37.682808 -122.493063 305 22904ft 324kts
16-May-18 18:16 37.733814 -122.587891 305 21891ft 328kts
16-May-18 18:17 37.784359 -122.682786 304 20891ft 330kts
16-May-18 18:18 37.847568 -122.762467 335 19853ft 331kts
16-May-18 18:19 37.933590 -122.803947 339 18723ft 335kts
16-May-18 18:20 38.021145 -122.842336 340 17275ft 320kts
16-May-18 18:21 38.102914 -122.871365 350 15764ft 303kts
16-May-18 18:22 38.185330 -122.887251 351 14274ft 301kts
16-May-18 18:23 38.267749 -122.902563 351 12782ft 301kts
16-May-18 18:24 38.350691 -122.917922 351 11283ft 302kts
16-May-18 18:25 38.433636 -122.933312 350 9787ft 303kts
16-May-18 18:26 38.516111 -122.948660 350 8551ft 299kts
16-May-18 18:27 38.582083 -122.961791 334 7981ft 183kts
16-May-18 18:28 38.610830 -122.989839 326 7928ft 80kts
16-May-18 18:29 38.647469 -123.000482 339 6663ft 202kts
16-May-18 18:30 38.702185 -123.028255 335 5996ft 198kts
16-May-18 18:31 38.749126 -123.053480 335 5998ft 172kts
16-May-18 18:32 38.791311 -123.076167 336 6001ft 159kts
16-May-18 18:33 38.831180 -123.097602 336 6003ft 152kts
16-May-18 18:34 38.863498 -123.114971 337 6006ft 150kts
16-May-18 18:35 38.901902 -123.135600 337 6007ft 149kts
16-May-18 18:36 38.943693 -123.152411 347 5411ft 181kts
16-May-18 18:37 38.998810 -123.167185 348 4070ft 204kts
16-May-18 18:38 39.049893 -123.180696 348 2827ft 193kts
16-May-18 18:39 39.100541 -123.194393 351 1499ft 171kts
16-May-18 18:40 39.097362 -123.192861 298 1253ft 113kts
16-May-18 18:41 39.126532 -123.201010 348 615ft 45kts
16-May-18 18:42 39.127574 -123.202644 356 615ft 0kts

Navigation Log

Ident Type
Flight plan parsing failed, navigation log unavailable